Time;durP1;ratioP1;P1;durP2;ratioP2;P2;SDS_P1;SDS_P2;PMS_P1;PMS_P2;Temp;Humidity;BMP_temperature;BMP_pressure;BME280_temperature;BME280_humidity;BME280_pressure;Samples;Min_cycle;Max_cycle;Signal;HPM_P1;HPM_P2
2022/06/04 00:01:19;;;;;;;7.38;4.85;;;;;;;;;;6324053;28;20143;-67
2022/06/04 00:04:21;;;;;;;11.45;4.70;;;;;;;;;;6322624;28;20379;-70
2022/06/04 00:07:23;;;;;;;6.85;4.80;;;;;;;;;;6326361;28;20047;-69
2022/06/04 00:17:06;;;;;;;11.68;5.38;;;;;;;;;;6325691;28;20041;-69
2022/06/04 00:20:08;;;;;;;6.85;4.50;;;;;;;;;;6325278;28;20236;-69
2022/06/04 00:23:11;;;;;;;6.45;4.15;;;;;;;;;;6324120;28;20044;-69
2022/06/04 00:26:14;;;;;;;5.15;4.65;;;;;;;;;;6327746;28;20109;-69
2022/06/04 00:29:16;;;;;;;6.82;4.40;;;;;;;;;;6328127;28;20078;-67
2022/06/04 00:32:19;;;;;;;9.40;4.93;;;;;;;;;;6323680;28;20036;-68
2022/06/04 00:35:22;;;;;;;10.30;5.28;;;;;;;;;;6319353;28;20056;-68
2022/06/04 00:38:28;;;;;;;6.95;4.32;;;;;;;;;;6324156;28;20075;-66
2022/06/04 00:41:36;;;;;;;6.25;4.03;;;;;;;;;;6319493;28;20048;-68
2022/06/04 00:45:14;;;;;;;10.32;4.43;;;;;;;;;;6327744;28;20101;-68
2022/06/04 00:48:20;;;;;;;5.70;3.58;;;;;;;;;;6323816;28;20105;-68
2022/06/04 00:51:23;;;;;;;5.28;2.95;;;;;;;;;;6321860;28;20054;-68
2022/06/04 00:54:25;;;;;;;6.43;3.63;;;;;;;;;;6322465;28;20052;-68
2022/06/04 00:57:43;;;;;;;7.03;3.80;;;;;;;;;;6325443;28;20856;-68
2022/06/04 01:00:48;;;;;;;7.03;3.80;;;;;;;;;;6321885;28;20094;-68
2022/06/04 01:04:00;;;;;;;8.73;3.75;;;;;;;;;;6329590;28;20051;-68
2022/06/04 01:07:05;;;;;;;6.30;4.13;;;;;;;;;;6326915;28;20258;-68
2022/06/04 01:10:23;;;;;;;6.45;4.40;;;;;;;;;;6324971;28;20047;-68
2022/06/04 01:13:35;;;;;;;6.45;4.03;;;;;;;;;;6321084;28;20064;-68
2022/06/04 01:16:40;;;;;;;6.55;3.70;;;;;;;;;;6326122;28;20096;-68
2022/06/04 01:19:56;;;;;;;9.65;4.00;;;;;;;;;;6324066;28;20056;-68
2022/06/04 01:23:14;;;;;;;8.77;3.80;;;;;;;;;;6322547;28;20055;-68
2022/06/04 01:26:27;;;;;;;9.90;3.85;;;;;;;;;;6326335;27;20044;-68
2022/06/04 01:29:33;;;;;;;7.30;4.13;;;;;;;;;;6322495;28;20070;-68
2022/06/04 01:32:39;;;;;;;9.13;4.60;;;;;;;;;;6323899;28;20044;-67
2022/06/04 01:35:46;;;;;;;8.63;3.75;;;;;;;;;;6326410;28;20134;-68
2022/06/04 01:38:50;;;;;;;9.32;4.20;;;;;;;;;;6326492;28;20110;-68
2022/06/04 01:41:54;;;;;;;10.45;4.50;;;;;;;;;;6326206;28;20039;-68
2022/06/04 01:44:58;;;;;;;7.95;4.10;;;;;;;;;;6322737;28;20323;-68
2022/06/04 01:48:01;;;;;;;8.65;4.82;;;;;;;;;;6325649;27;20054;-69
2022/06/04 01:51:04;;;;;;;6.68;3.95;;;;;;;;;;6320683;28;20036;-68
2022/06/04 01:54:12;;;;;;;7.78;4.53;;;;;;;;;;6322824;28;20335;-68
2022/06/04 01:57:19;;;;;;;8.15;4.25;;;;;;;;;;6324706;28;20048;-68
2022/06/04 02:00:24;;;;;;;7.32;4.05;;;;;;;;;;6320526;28;20044;-68
2022/06/04 02:03:30;;;;;;;8.15;4.45;;;;;;;;;;6323828;28;20048;-68
2022/06/04 02:06:36;;;;;;;8.38;4.30;;;;;;;;;;6325027;28;20228;-68
2022/06/04 02:09:39;;;;;;;7.10;4.00;;;;;;;;;;6320592;28;20121;-68
2022/06/04 02:12:44;;;;;;;13.32;4.13;;;;;;;;;;6325650;28;20508;-68
2022/06/04 02:15:50;;;;;;;9.38;5.13;;;;;;;;;;6326847;28;20056;-68
2022/06/04 02:18:52;;;;;;;8.15;4.28;;;;;;;;;;6326784;28;20052;-68
2022/06/04 02:21:54;;;;;;;9.65;4.70;;;;;;;;;;6318883;28;20040;-69
2022/06/04 02:24:56;;;;;;;9.27;5.28;;;;;;;;;;6324546;28;20050;-68
2022/06/04 02:27:59;;;;;;;9.27;4.22;;;;;;;;;;6321250;28;20323;-68
2022/06/04 02:31:07;;;;;;;9.38;3.95;;;;;;;;;;6322654;28;20048;-68
2022/06/04 02:34:12;;;;;;;7.80;4.13;;;;;;;;;;6324012;28;20048;-68
2022/06/04 02:37:17;;;;;;;9.43;4.53;;;;;;;;;;6321232;28;20056;-68
2022/06/04 02:40:22;;;;;;;8.55;4.78;;;;;;;;;;6319871;28;20089;-68
2022/06/04 02:43:30;;;;;;;6.88;4.05;;;;;;;;;;6320318;28;20332;-68
2022/06/04 02:46:34;;;;;;;9.50;4.50;;;;;;;;;;6303950;28;20661;-69
2022/06/04 02:49:39;;;;;;;6.78;4.50;;;;;;;;;;6319128;28;20044;-68
2022/06/04 02:52:41;;;;;;;8.77;4.63;;;;;;;;;;6322230;28;20052;-69
2022/06/04 02:55:47;;;;;;;6.82;4.65;;;;;;;;;;6323904;28;20052;-69
2022/06/04 02:58:55;;;;;;;7.22;4.47;;;;;;;;;;6322516;28;20044;-68
2022/06/04 03:02:00;;;;;;;10.18;5.25;;;;;;;;;;6324180;28;20063;-68
2022/06/04 03:05:09;;;;;;;8.32;4.70;;;;;;;;;;6324469;28;19924;-69
2022/06/04 03:08:11;;;;;;;8.77;4.93;;;;;;;;;;6323345;28;20051;-68
2022/06/04 03:11:13;;;;;;;9.30;4.10;;;;;;;;;;6326321;28;20056;-69
2022/06/04 03:14:18;;;;;;;6.20;4.45;;;;;;;;;;6322932;28;20048;-69
2022/06/04 03:17:20;;;;;;;6.32;4.45;;;;;;;;;;6329955;28;20047;-69
2022/06/04 03:20:24;;;;;;;8.88;4.78;;;;;;;;;;6327315;28;20072;-68
2022/06/04 03:23:26;;;;;;;8.07;4.63;;;;;;;;;;6325062;28;20327;-69
2022/06/04 03:26:27;;;;;;;8.18;5.07;;;;;;;;;;6326636;28;20060;-68
2022/06/04 03:29:31;;;;;;;6.97;4.80;;;;;;;;;;6325051;28;20062;-68
2022/06/04 03:32:32;;;;;;;6.13;4.63;;;;;;;;;;6325808;28;20110;-68
2022/06/04 03:35:34;;;;;;;10.93;5.00;;;;;;;;;;6323043;28;20050;-71
2022/06/04 03:38:36;;;;;;;9.05;4.82;;;;;;;;;;6323270;28;20093;-69
2022/06/04 03:41:38;;;;;;;6.22;4.53;;;;;;;;;;6322164;28;20055;-70
2022/06/04 03:44:46;;;;;;;6.35;4.60;;;;;;;;;;6322105;28;20101;-70
2022/06/04 03:47:48;;;;;;;7.05;4.30;;;;;;;;;;6323654;28;20704;-70
2022/06/04 03:50:50;;;;;;;8.75;4.70;;;;;;;;;;6320508;28;20060;-68
2022/06/04 03:53:51;;;;;;;7.72;4.97;;;;;;;;;;6323193;28;20052;-70
2022/06/04 03:57:37;;;;;;;8.93;4.90;;;;;;;;;;6324351;28;20116;-70
2022/06/04 04:00:20;;;;;;;10.18;5.38;;;;;;;;;;6322366;28;20049;-70
2022/06/04 04:03:21;;;;;;;7.28;5.40;;;;;;;;;;6322087;28;20075;-70
2022/06/04 04:06:25;;;;;;;7.90;5.25;;;;;;;;;;6328406;28;20044;-70
2022/06/04 04:09:26;;;;;;;7.93;5.50;;;;;;;;;;6321659;28;20056;-69
2022/06/04 04:12:29;;;;;;;8.10;5.85;;;;;;;;;;6318445;28;20060;-70
2022/06/04 04:15:32;;;;;;;9.10;5.82;;;;;;;;;;6321900;28;20090;-70
2022/06/04 04:18:34;;;;;;;8.10;5.57;;;;;;;;;;6325856;28;20055;-70
2022/06/04 04:21:40;;;;;;;10.88;5.30;;;;;;;;;;6325414;28;20050;-70
2022/06/04 04:24:42;;;;;;;9.32;5.50;;;;;;;;;;6324932;28;20051;-70
2022/06/04 04:27:44;;;;;;;9.25;5.22;;;;;;;;;;6324862;28;20279;-69
2022/06/04 04:30:47;;;;;;;7.75;5.28;;;;;;;;;;6323086;28;20346;-70
2022/06/04 04:33:49;;;;;;;11.35;5.63;;;;;;;;;;6325044;28;20748;-70
2022/06/04 04:36:50;;;;;;;9.50;4.63;;;;;;;;;;6283594;28;1112541;-69
2022/06/04 04:39:52;;;;;;;8.80;5.50;;;;;;;;;;6323606;28;20053;-70
2022/06/04 04:42:54;;;;;;;7.22;5.05;;;;;;;;;;6326271;28;20056;-70
2022/06/04 04:46:02;;;;;;;7.93;5.43;;;;;;;;;;6326796;28;20050;-70
2022/06/04 04:49:04;;;;;;;8.63;5.70;;;;;;;;;;6326722;28;20089;-70
2022/06/04 04:52:06;;;;;;;7.88;5.97;;;;;;;;;;6326310;28;20208;-70
2022/06/04 04:55:08;;;;;;;11.98;6.55;;;;;;;;;;6328798;28;20055;-70
2022/06/04 04:58:10;;;;;;;9.18;5.80;;;;;;;;;;6322375;28;20266;-70
2022/06/04 05:01:16;;;;;;;8.35;5.85;;;;;;;;;;6327095;28;20048;-70
2022/06/04 05:04:18;;;;;;;7.57;6.38;;;;;;;;;;6320961;27;20324;-70
2022/06/04 05:07:20;;;;;;;9.73;5.60;;;;;;;;;;6323109;28;20239;-71
2022/06/04 05:10:21;;;;;;;10.02;6.45;;;;;;;;;;6327601;28;20059;-69
2022/06/04 05:13:23;;;;;;;11.82;6.53;;;;;;;;;;6326084;28;20052;-70
2022/06/04 05:16:28;;;;;;;9.13;6.05;;;;;;;;;;6328545;28;20048;-70
2022/06/04 05:19:29;;;;;;;7.50;6.05;;;;;;;;;;6322593;28;20391;-70
2022/06/04 05:22:31;;;;;;;9.13;6.25;;;;;;;;;;6327260;28;20040;-70
2022/06/04 05:25:33;;;;;;;8.95;6.10;;;;;;;;;;6322030;28;20372;-70
2022/06/04 05:28:34;;;;;;;10.15;7.18;;;;;;;;;;6327842;28;20243;-70
2022/06/04 05:31:39;;;;;;;9.63;6.00;;;;;;;;;;6323520;28;20048;-70
2022/06/04 05:34:41;;;;;;;10.02;6.22;;;;;;;;;;6324952;28;20090;-70
2022/06/04 05:37:42;;;;;;;9.40;6.25;;;;;;;;;;6324207;28;20086;-70
2022/06/04 05:40:44;;;;;;;9.95;6.95;;;;;;;;;;6319441;28;20064;-69
2022/06/04 05:43:46;;;;;;;9.57;6.97;;;;;;;;;;6325902;28;20056;-70
2022/06/04 05:46:49;;;;;;;8.50;6.03;;;;;;;;;;6324954;28;20063;-70
2022/06/04 05:49:50;;;;;;;12.30;6.50;;;;;;;;;;6320570;27;20066;-69
2022/06/04 05:52:52;;;;;;;11.00;7.18;;;;;;;;;;6325316;28;20044;-69
2022/06/04 05:55:53;;;;;;;9.25;6.72;;;;;;;;;;6325327;28;20097;-70
2022/06/04 05:58:57;;;;;;;10.90;7.50;;;;;;;;;;6322975;28;20056;-70
2022/06/04 06:02:01;;;;;;;9.85;7.50;;;;;;;;;;6323894;28;20052;-68
2022/06/04 06:05:04;;;;;;;11.98;7.75;;;;;;;;;;6322147;28;20044;-70
2022/06/04 06:08:06;;;;;;;12.20;8.32;;;;;;;;;;6325750;28;20137;-69
2022/06/04 06:11:09;;;;;;;11.57;7.93;;;;;;;;;;6322708;28;20095;-70
2022/06/04 06:14:11;;;;;;;13.07;8.65;;;;;;;;;;6324062;28;20444;-69
2022/06/04 06:17:14;;;;;;;10.73;7.95;;;;;;;;;;6324924;28;20051;-69
2022/06/04 06:20:16;;;;;;;15.10;9.15;;;;;;;;;;6326469;28;20109;-70
2022/06/04 06:23:18;;;;;;;13.73;8.50;;;;;;;;;;6320322;28;20056;-68
2022/06/04 06:26:22;;;;;;;9.57;7.50;;;;;;;;;;6318473;28;20059;-70
2022/06/04 06:29:26;;;;;;;11.45;7.82;;;;;;;;;;6324069;28;20055;-70
2022/06/04 06:32:29;;;;;;;13.48;7.60;;;;;;;;;;6325775;28;20048;-70
2022/06/04 06:35:31;;;;;;;12.02;7.72;;;;;;;;;;6320932;28;20060;-70
2022/06/04 06:38:33;;;;;;;8.70;6.93;;;;;;;;;;6320417;28;20096;-70
2022/06/04 06:41:35;;;;;;;9.65;7.43;;;;;;;;;;6319593;28;20361;-69
2022/06/04 06:44:37;;;;;;;9.50;7.10;;;;;;;;;;6323868;28;20059;-68
2022/06/04 06:47:43;;;;;;;10.23;7.15;;;;;;;;;;6327626;28;20224;-69
2022/06/04 06:50:44;;;;;;;10.45;6.72;;;;;;;;;;6321669;28;20111;-70
2022/06/04 06:53:46;;;;;;;8.68;6.57;;;;;;;;;;6324998;28;20052;-70
2022/06/04 06:56:51;;;;;;;10.02;7.18;;;;;;;;;;6319526;28;20090;-70
2022/06/04 06:59:54;;;;;;;7.95;6.35;;;;;;;;;;6321492;28;20086;-70
2022/06/04 07:02:57;;;;;;;12.23;6.80;;;;;;;;;;6324140;28;20059;-70
2022/06/04 07:05:59;;;;;;;11.32;7.03;;;;;;;;;;6324052;28;20047;-69
2022/06/04 07:09:03;;;;;;;11.85;7.85;;;;;;;;;;6315379;28;20063;-71
2022/06/04 07:12:06;;;;;;;10.43;7.78;;;;;;;;;;6325105;27;20040;-70
2022/06/04 07:15:09;;;;;;;8.57;7.20;;;;;;;;;;6322912;28;20392;-70
2022/06/04 07:18:12;;;;;;;11.05;6.72;;;;;;;;;;6320255;28;20056;-70
2022/06/04 07:21:14;;;;;;;13.23;5.70;;;;;;;;;;6319741;28;20044;-70
2022/06/04 07:24:16;;;;;;;10.55;6.00;;;;;;;;;;6325232;28;20066;-70
2022/06/04 07:27:17;;;;;;;10.85;6.60;;;;;;;;;;6322641;28;20339;-70
2022/06/04 07:30:19;;;;;;;9.20;5.55;;;;;;;;;;6318134;28;20262;-70
2022/06/04 07:33:22;;;;;;;9.82;6.97;;;;;;;;;;6329227;28;20051;-70
2022/06/04 07:36:24;;;;;;;;;;;;;;;;;;6329075;28;20051;-70
2022/06/04 07:39:26;;;;;;;8.70;5.72;;;;;;;;;;6320902;28;19916;-69
2022/06/04 07:42:28;;;;;;;8.95;5.38;;;;;;;;;;6327338;28;20358;-70
2022/06/04 07:45:30;;;;;;;7.80;6.25;;;;;;;;;;6330690;28;20107;-71
2022/06/04 07:48:33;;;;;;;8.60;5.53;;;;;;;;;;6326107;28;20105;-70
2022/06/04 07:51:34;;;;;;;;;;;;;;;;;;6326700;28;20040;-71
2022/06/04 07:54:36;;;;;;;10.00;5.22;;;;;;;;;;6325154;28;19931;-71
2022/06/04 07:57:39;;;;;;;8.18;4.10;;;;;;;;;;6324403;28;20057;-70
2022/06/04 08:00:41;;;;;;;12.90;4.53;;;;;;;;;;6326667;28;20048;-70
2022/06/04 08:03:45;;;;;;;9.73;4.10;;;;;;;;;;6326164;28;20055;-71
2022/06/04 08:06:47;;;;;;;9.80;4.18;;;;;;;;;;6323939;28;20052;-70
2022/06/04 08:09:49;;;;;;;9.68;5.13;;;;;;;;;;6326164;28;20078;-70
2022/06/04 08:12:51;;;;;;;9.35;4.68;;;;;;;;;;6327830;28;20090;-68
2022/06/04 08:15:54;;;;;;;12.77;4.45;;;;;;;;;;6327952;28;20165;-69
2022/06/04 08:18:58;;;;;;;8.55;4.28;;;;;;;;;;6324045;28;20258;-69
2022/06/04 08:22:00;;;;;;;9.10;3.58;;;;;;;;;;6325568;28;20064;-70
2022/06/04 08:25:02;;;;;;;6.32;3.28;;;;;;;;;;6327491;28;20063;-70
2022/06/04 08:28:04;;;;;;;4.00;2.65;;;;;;;;;;6327759;28;20173;-70
2022/06/04 08:31:07;;;;;;;4.93;2.67;;;;;;;;;;6329326;28;20063;-70
2022/06/04 08:34:10;;;;;;;5.72;3.50;;;;;;;;;;6327331;28;20047;-69
2022/06/04 08:37:12;;;;;;;4.05;2.60;;;;;;;;;;6328496;28;20274;-70
2022/06/04 08:40:24;;;;;;;4.10;2.40;;;;;;;;;;6326824;28;20048;-70
2022/06/04 08:43:34;;;;;;;3.25;2.00;;;;;;;;;;6327368;28;20102;-69
2022/06/04 08:46:38;;;;;;;6.45;2.78;;;;;;;;;;6326759;28;20048;-70
2022/06/04 08:49:46;;;;;;;4.40;2.83;;;;;;;;;;6330873;28;20093;-70
2022/06/04 08:52:49;;;;;;;5.32;2.88;;;;;;;;;;6327326;28;20384;-69
2022/06/04 08:59:21;;;;;;;8.70;3.10;;;;;;;;;;6325435;28;20320;-68
2022/06/04 09:02:30;;;;;;;7.78;3.70;;;;;;;;;;6327554;28;20343;-70
2022/06/04 09:05:40;;;;;;;5.72;3.38;;;;;;;;;;6329446;28;20048;-70
2022/06/04 09:08:51;;;;;;;4.28;2.42;;;;;;;;;;6328366;28;20109;-70
2022/06/04 09:11:56;;;;;;;5.82;2.53;;;;;;;;;;6323802;28;20339;-70
2022/06/04 09:15:02;;;;;;;7.90;2.90;;;;;;;;;;6326104;28;20048;-71
2022/06/04 09:18:07;;;;;;;8.60;2.85;;;;;;;;;;6325026;28;20071;-70
2022/06/04 09:21:11;;;;;;;5.18;2.53;;;;;;;;;;6324576;28;20067;-70
2022/06/04 09:24:13;;;;;;;8.07;2.40;;;;;;;;;;6325785;28;20047;-71
2022/06/04 09:27:30;;;;;;;7.23;2.30;;;;;;;;;;6327274;28;20052;-70
2022/06/04 09:30:35;;;;;;;6.28;2.60;;;;;;;;;;6325474;28;20851;-70
2022/06/04 09:33:58;;;;;;;5.88;2.80;;;;;;;;;;6323024;28;20284;-71
2022/06/04 09:37:02;;;;;;;5.38;2.60;;;;;;;;;;6325339;28;20111;-69
2022/06/04 09:40:06;;;;;;;4.78;2.47;;;;;;;;;;6324406;28;20047;-70
2022/06/04 09:43:14;;;;;;;7.15;2.90;;;;;;;;;;6326903;28;20227;-69
2022/06/04 09:46:16;;;;;;;3.72;2.40;;;;;;;;;;6324056;28;20050;-70
2022/06/04 09:49:33;;;;;;;7.57;2.85;;;;;;;;;;6323002;27;20239;-70
2022/06/04 09:52:38;;;;;;;6.35;2.38;;;;;;;;;;6325916;28;20050;-70
2022/06/04 09:55:45;;;;;;;6.45;2.80;;;;;;;;;;6324220;28;20052;-70
2022/06/04 09:58:50;;;;;;;6.47;2.50;;;;;;;;;;6325824;28;20052;-70
2022/06/04 10:01:57;;;;;;;4.72;2.95;;;;;;;;;;6326864;28;20153;-70
2022/06/04 10:05:03;;;;;;;4.70;2.22;;;;;;;;;;6324914;28;20066;-70
2022/06/04 10:08:14;;;;;;;10.70;3.00;;;;;;;;;;6325429;28;20087;-69
2022/06/04 10:11:19;;;;;;;4.45;2.50;;;;;;;;;;6326717;28;20149;-71
2022/06/04 10:14:28;;;;;;;7.55;2.60;;;;;;;;;;6326181;28;20060;-70
2022/06/04 10:17:38;;;;;;;4.18;2.53;;;;;;;;;;6324310;28;20121;-70
2022/06/04 10:20:40;;;;;;;6.68;2.75;;;;;;;;;;6325211;28;20058;-70
2022/06/04 10:23:44;;;;;;;;;;;;;;;;;;6326179;28;20239;-71
2022/06/04 10:26:57;;;;;;;6.22;3.42;;;;;;;;;;6325500;28;19916;-71
2022/06/04 10:30:22;;;;;;;5.80;2.65;;;;;;;;;;6321284;28;20072;-70
2022/06/04 10:33:35;;;;;;;5.70;2.50;;;;;;;;;;6321083;28;20048;-69
2022/06/04 10:36:47;;;;;;;5.20;2.58;;;;;;;;;;6324888;28;20074;-71
2022/06/04 10:39:57;;;;;;;5.65;2.65;;;;;;;;;;6320512;28;20097;-70
2022/06/04 10:43:06;;;;;;;3.95;2.25;;;;;;;;;;6327274;28;20044;-70
2022/06/04 10:46:15;;;;;;;5.30;2.25;;;;;;;;;;6324974;28;20164;-70
2022/06/04 10:49:29;;;;;;;6.18;3.00;;;;;;;;;;6323560;28;20346;-69
2022/06/04 10:52:37;;;;;;;4.78;2.33;;;;;;;;;;6324651;28;20044;-70
2022/06/04 10:55:46;;;;;;;5.32;2.47;;;;;;;;;;6323004;28;20055;-69
2022/06/04 10:58:52;;;;;;;4.25;2.45;;;;;;;;;;6324365;28;20135;-68
2022/06/04 11:01:56;;;;;;;3.38;2.10;;;;;;;;;;6321917;27;20105;-69
2022/06/04 11:05:01;;;;;;;5.45;2.30;;;;;;;;;;6325458;28;20044;-69
2022/06/04 11:08:07;;;;;;;4.00;2.78;;;;;;;;;;6329614;28;20335;-71
2022/06/04 11:11:13;;;;;;;4.00;2.67;;;;;;;;;;6327014;28;20048;-68
2022/06/04 11:14:19;;;;;;;5.85;2.67;;;;;;;;;;6325968;28;20094;-70
2022/06/04 11:17:24;;;;;;;3.05;2.35;;;;;;;;;;6324102;28;20048;-70
2022/06/04 11:20:29;;;;;;;4.50;3.10;;;;;;;;;;6327844;28;20347;-70
2022/06/04 11:23:38;;;;;;;4.75;2.25;;;;;;;;;;6331970;28;20323;-70
2022/06/04 11:26:43;;;;;;;3.80;2.60;;;;;;;;;;6330569;28;20320;-70
2022/06/04 11:29:45;;;;;;;4.03;2.53;;;;;;;;;;6326486;28;20052;-67
2022/06/04 11:32:52;;;;;;;4.25;3.15;;;;;;;;;;6327757;28;20052;-70
2022/06/04 11:35:59;;;;;;;3.90;2.50;;;;;;;;;;6327123;28;20052;-70
2022/06/04 11:39:07;;;;;;;6.63;2.55;;;;;;;;;;6325571;28;20044;-70
2022/06/04 11:42:19;;;;;;;3.92;2.80;;;;;;;;;;6332998;28;20109;-70
2022/06/04 11:45:37;;;;;;;4.65;2.75;;;;;;;;;;6327801;28;20040;-70
2022/06/04 11:49:06;;;;;;;3.88;2.95;;;;;;;;;;6328334;28;20048;-70
2022/06/04 11:52:17;;;;;;;4.03;2.63;;;;;;;;;;6324629;28;20319;-70
2022/06/04 11:55:26;;;;;;;5.15;2.60;;;;;;;;;;6325499;28;20262;-71
2022/06/04 11:58:47;;;;;;;6.40;3.40;;;;;;;;;;6330087;28;20303;-70
2022/06/04 12:01:52;;;;;;;6.43;3.05;;;;;;;;;;6327743;28;20302;-70
2022/06/04 12:05:04;;;;;;;4.50;2.78;;;;;;;;;;6329388;28;20101;-69
2022/06/04 12:08:08;;;;;;;7.10;2.83;;;;;;;;;;6329656;28;20208;-69
2022/06/04 12:11:19;;;;;;;5.30;2.97;;;;;;;;;;6327958;28;20273;-70
2022/06/04 12:14:28;;;;;;;8.70;3.30;;;;;;;;;;6326995;28;20312;-69
2022/06/04 12:17:33;;;;;;;5.80;3.13;;;;;;;;;;6324807;28;20060;-71
2022/06/04 12:24:19;;;;;;;3.65;2.78;;;;;;;;;;6327230;28;20111;-71
2022/06/04 12:27:22;;;;;;;5.82;3.03;;;;;;;;;;6325836;28;20044;-70
2022/06/04 12:30:33;;;;;;;3.20;2.42;;;;;;;;;;6320101;28;20052;-70
2022/06/04 12:33:36;;;;;;;;;;;;;;;;;;6330850;28;20044;-70
2022/06/04 12:36:38;;;;;;;4.72;3.15;;;;;;;;;;6325587;28;19932;-70
2022/06/04 12:39:40;;;;;;;7.65;3.25;;;;;;;;;;6327541;28;20052;-70
2022/06/04 12:42:45;;;;;;;5.70;3.00;;;;;;;;;;6325732;28;20055;-70
2022/06/04 12:45:50;;;;;;;4.25;2.72;;;;;;;;;;6325351;28;20271;-71
2022/06/04 12:49:02;;;;;;;4.32;3.10;;;;;;;;;;6324739;28;20101;-71
2022/06/04 12:52:09;;;;;;;5.38;3.13;;;;;;;;;;6329768;28;20056;-70
2022/06/04 12:55:17;;;;;;;7.47;3.50;;;;;;;;;;6325783;28;20273;-70
2022/06/04 12:58:28;;;;;;;5.95;3.28;;;;;;;;;;6322318;28;20044;-69
2022/06/04 13:01:38;;;;;;;4.40;2.92;;;;;;;;;;6328074;28;20052;-70
2022/06/04 13:04:40;;;;;;;5.80;2.92;;;;;;;;;;6328398;28;20052;-70
2022/06/04 13:07:45;;;;;;;;;;;;;;;;;;6324195;28;20040;-69
2022/06/04 13:10:53;;;;;;;7.75;3.25;;;;;;;;;;6326437;28;19924;-70
2022/06/04 13:14:00;;;;;;;5.75;3.30;;;;;;;;;;6324860;28;20269;-70
2022/06/04 13:17:28;;;;;;;6.65;3.40;;;;;;;;;;6325076;28;20056;-70
2022/06/04 13:20:41;;;;;;;6.97;3.92;;;;;;;;;;6324754;28;20055;-70
2022/06/04 13:23:45;;;;;;;6.60;3.25;;;;;;;;;;6328114;28;20104;-70
2022/06/04 13:26:52;;;;;;;8.77;3.05;;;;;;;;;;6326261;28;20063;-70
2022/06/04 13:29:58;;;;;;;9.13;3.20;;;;;;;;;;6322541;28;20273;-70
2022/06/04 13:33:08;;;;;;;6.88;3.97;;;;;;;;;;6326299;28;20052;-69
2022/06/04 13:36:09;;;;;;;8.18;3.38;;;;;;;;;;6323540;28;20111;-69
2022/06/04 13:39:16;;;;;;;;;;;;;;;;;;6327289;28;20047;-70
2022/06/04 13:42:21;;;;;;;5.40;2.90;;;;;;;;;;6328633;28;19971;-70
2022/06/04 13:45:28;;;;;;;5.82;3.13;;;;;;;;;;6328970;28;20090;-70
2022/06/04 13:48:32;;;;;;;7.07;3.60;;;;;;;;;;6322679;28;20060;-70
2022/06/04 13:51:41;;;;;;;4.78;3.05;;;;;;;;;;6325496;28;20441;-70
2022/06/04 13:54:51;;;;;;;3.65;2.63;;;;;;;;;;6322614;28;20052;-70
2022/06/04 13:57:53;;;;;;;7.45;3.83;;;;;;;;;;6325756;28;20119;-70
2022/06/04 14:00:58;;;;;;;8.15;3.30;;;;;;;;;;6327067;28;20107;-70
2022/06/04 14:07:32;;;;;;;6.00;3.22;;;;;;;;;;6326549;28;20040;-70
2022/06/04 14:10:34;;;;;;;6.65;3.17;;;;;;;;;;6322533;28;20052;-69
2022/06/04 14:13:59;;;;;;;7.25;3.70;;;;;;;;;;6327182;28;20185;-69
2022/06/04 14:17:15;;;;;;;5.43;3.03;;;;;;;;;;6324445;28;20060;-69
2022/06/04 14:20:23;;;;;;;7.28;3.25;;;;;;;;;;6323590;28;20111;-69
2022/06/04 14:23:34;;;;;;;6.72;3.13;;;;;;;;;;6323115;28;20089;-70
2022/06/04 14:26:41;;;;;;;6.10;3.17;;;;;;;;;;6324777;28;20044;-70
2022/06/04 14:29:49;;;;;;;7.50;3.50;;;;;;;;;;6321077;28;20093;-70
2022/06/04 14:32:53;;;;;;;7.20;2.97;;;;;;;;;;6325511;28;20110;-69
2022/06/04 14:36:01;;;;;;;7.57;3.30;;;;;;;;;;6319128;28;20040;-69
2022/06/04 14:39:03;;;;;;;8.25;3.63;;;;;;;;;;6324305;28;20054;-70
2022/06/04 14:42:19;;;;;;;7.18;3.10;;;;;;;;;;6328370;28;20044;-70
2022/06/04 14:45:30;;;;;;;6.90;3.45;;;;;;;;;;6327712;28;20075;-70
2022/06/04 14:49:05;;;;;;;4.70;3.47;;;;;;;;;;6327690;28;20094;-68
2022/06/04 14:52:24;;;;;;;12.57;3.53;;;;;;;;;;6320954;28;20075;-70
2022/06/04 14:55:29;;;;;;;6.38;3.35;;;;;;;;;;6331289;28;20226;-68
2022/06/04 14:58:55;;;;;;;9.38;3.50;;;;;;;;;;6328452;28;20089;-69
2022/06/04 15:02:20;;;;;;;7.18;3.65;;;;;;;;;;6329376;28;20052;-69
2022/06/04 15:05:39;;;;;;;9.45;3.47;;;;;;;;;;6327366;28;20056;-69
2022/06/04 15:08:55;;;;;;;6.57;3.78;;;;;;;;;;6328833;28;20300;-70
2022/06/04 15:12:20;;;;;;;7.80;3.15;;;;;;;;;;6331930;28;20072;-69
2022/06/04 15:15:32;;;;;;;7.68;3.55;;;;;;;;;;6328091;28;20052;-70
2022/06/04 15:18:38;;;;;;;;;;;;;;;;;;6329513;28;20119;-69
2022/06/04 15:21:49;;;;;;;9.65;3.40;;;;;;;;;;6330236;28;20143;-70
2022/06/04 15:25:00;;;;;;;8.73;3.60;;;;;;;;;;6325746;28;20044;-69
2022/06/04 15:28:07;;;;;;;7.63;3.28;;;;;;;;;;6328749;28;20097;-69
2022/06/04 15:34:47;;;;;;;10.60;3.55;;;;;;;;;;6325665;28;20048;-69
2022/06/04 15:37:55;;;;;;;7.30;3.22;;;;;;;;;;6323115;28;20102;-70
2022/06/04 15:41:14;;;;;;;8.05;3.42;;;;;;;;;;6329758;28;20063;-70
2022/06/04 15:44:17;;;;;;;9.13;3.60;;;;;;;;;;6326822;28;20130;-70
2022/06/04 15:47:29;;;;;;;6.78;3.60;;;;;;;;;;6324716;28;20060;-70
2022/06/04 15:57:39;;;;;;;7.57;3.60;;;;;;;;;;6322456;28;20243;-71
2022/06/04 16:00:46;;;;;;;5.50;3.10;;;;;;;;;;6330466;28;20043;-71
2022/06/04 16:03:50;;;;;;;9.40;3.67;;;;;;;;;;6329728;28;20050;-70
2022/06/04 16:07:07;;;;;;;8.35;3.17;;;;;;;;;;6324079;28;20052;-70
2022/06/04 16:10:16;;;;;;;8.48;3.20;;;;;;;;;;6326803;28;20090;-71
2022/06/04 16:13:28;;;;;;;6.93;3.97;;;;;;;;;;6331357;28;20319;-71
2022/06/04 16:16:41;;;;;;;7.70;3.97;;;;;;;;;;6326178;28;20040;-71
2022/06/04 16:19:45;;;;;;;;;;;;;;;;;;6328904;28;20079;-70
2022/06/04 16:22:55;;;;;;;10.02;4.22;;;;;;;;;;6328741;28;19923;-70
2022/06/04 16:26:01;;;;;;;8.95;3.53;;;;;;;;;;6322524;28;20105;-71
2022/06/04 16:29:19;;;;;;;7.38;3.67;;;;;;;;;;6327080;28;20127;-70
2022/06/04 16:32:21;;;;;;;11.30;3.88;;;;;;;;;;6328997;28;20048;-71
2022/06/04 16:35:23;;;;;;;9.02;3.78;;;;;;;;;;6327336;28;20056;-70
2022/06/04 16:38:29;;;;;;;7.97;3.38;;;;;;;;;;6329767;28;20052;-70
2022/06/04 16:44:57;;;;;;;14.25;4.20;;;;;;;;;;6326617;28;20327;-70
2022/06/04 16:48:03;;;;;;;10.20;4.00;;;;;;;;;;6324689;28;20056;-70
2022/06/04 16:51:07;;;;;;;5.45;3.25;;;;;;;;;;6329152;28;20107;-70
2022/06/04 16:54:09;;;;;;;7.60;4.15;;;;;;;;;;6327683;28;20384;-70
2022/06/04 16:57:11;;;;;;;9.93;3.60;;;;;;;;;;6326671;28;20089;-70
2022/06/04 17:00:17;;;;;;;9.80;3.90;;;;;;;;;;6325989;28;20327;-71
2022/06/04 17:03:29;;;;;;;7.03;3.30;;;;;;;;;;6325749;28;20048;-70
2022/06/04 17:06:50;;;;;;;9.93;5.00;;;;;;;;;;6322954;28;20056;-70
2022/06/04 17:10:13;;;;;;;7.13;3.60;;;;;;;;;;6327676;28;20051;-69
2022/06/04 17:13:22;;;;;;;7.47;3.67;;;;;;;;;;6324394;28;20208;-69
2022/06/04 17:16:30;;;;;;;8.85;4.25;;;;;;;;;;6327542;28;20098;-69
2022/06/04 17:19:41;;;;;;;6.78;3.45;;;;;;;;;;6325641;28;20121;-69
2022/06/04 17:22:51;;;;;;;8.05;3.58;;;;;;;;;;6323242;28;20125;-70
2022/06/04 17:26:06;;;;;;;13.30;4.22;;;;;;;;;;6321687;28;20041;-69
2022/06/04 17:29:16;;;;;;;8.50;4.28;;;;;;;;;;6326013;28;20054;-69
2022/06/04 17:32:27;;;;;;;9.25;3.63;;;;;;;;;;6320934;28;20044;-69
2022/06/04 17:35:37;;;;;;;8.63;4.10;;;;;;;;;;6324043;28;20263;-69
2022/06/04 17:39:01;;;;;;;9.80;4.10;;;;;;;;;;6320754;28;20343;-70
2022/06/04 17:42:03;;;;;;;8.35;4.75;;;;;;;;;;6325937;28;20044;-69
2022/06/04 17:45:06;;;;;;;7.95;4.82;;;;;;;;;;6325185;28;20327;-71
2022/06/04 17:48:10;;;;;;;11.15;3.50;;;;;;;;;;6327107;28;20056;-70
2022/06/04 17:51:14;;;;;;;8.10;4.18;;;;;;;;;;6326740;28;20043;-69
2022/06/04 17:54:15;;;;;;;7.43;4.50;;;;;;;;;;6325745;28;20055;-70
2022/06/04 17:57:17;;;;;;;8.85;4.00;;;;;;;;;;6322660;28;20048;-69
2022/06/04 18:00:22;;;;;;;11.30;4.60;;;;;;;;;;6324718;28;20074;-70
2022/06/04 18:03:25;;;;;;;10.48;4.55;;;;;;;;;;6322791;28;20396;-70
2022/06/04 18:06:27;;;;;;;11.82;5.72;;;;;;;;;;6325427;28;20048;-71
2022/06/04 18:09:28;;;;;;;18.65;4.78;;;;;;;;;;6327775;28;20081;-69
2022/06/04 18:12:32;;;;;;;12.90;5.40;;;;;;;;;;6323972;28;20105;-70
2022/06/04 18:15:33;;;;;;;9.50;4.70;;;;;;;;;;6325399;28;20097;-68
2022/06/04 18:18:37;;;;;;;12.43;4.18;;;;;;;;;;6326499;28;20056;-69
2022/06/04 18:21:39;;;;;;;8.48;3.97;;;;;;;;;;6326301;28;20067;-70
2022/06/04 18:24:41;;;;;;;11.35;4.93;;;;;;;;;;6321569;28;20052;-70
2022/06/04 18:27:44;;;;;;;8.17;4.33;;;;;;;;;;6319714;28;20107;-69
2022/06/04 18:30:48;;;;;;;12.55;5.18;;;;;;;;;;6323054;28;20234;-69
2022/06/04 18:33:53;;;;;;;10.73;4.13;;;;;;;;;;6327694;28;20043;-69
2022/06/04 18:36:55;;;;;;;14.35;4.43;;;;;;;;;;6324969;28;20070;-70
2022/06/04 18:39:56;;;;;;;13.10;4.40;;;;;;;;;;6321964;28;20052;-69
2022/06/04 18:56:16;;;;;;;9.35;3.92;;;;;;;;;;6325243;28;20040;-69
2022/06/04 18:59:18;;;;;;;7.60;4.55;;;;;;;;;;6323814;28;20055;-70
2022/06/04 19:02:20;;;;;;;10.45;4.07;;;;;;;;;;6325575;28;20099;-70
2022/06/04 19:05:23;;;;;;;6.05;4.25;;;;;;;;;;6324252;28;20048;-70
2022/06/04 19:08:25;;;;;;;7.95;4.25;;;;;;;;;;6324332;28;20079;-70
2022/06/04 19:14:46;;;;;;;11.98;4.70;;;;;;;;;;6323413;28;20044;-70
2022/06/04 19:17:47;;;;;;;13.48;5.03;;;;;;;;;;6320472;28;20054;-70
2022/06/04 19:27:29;;;;;;;12.63;5.70;;;;;;;;;;6325843;28;20040;-70
2022/06/04 19:30:31;;;;;;;12.82;4.57;;;;;;;;;;6326771;28;20055;-70